LWSK/SKP METAR and TAF weather

Enter ICAO airport designator
Station Type Date Time Source
LWSK METAR 2022/07/01 01:00 UTC NOAA

LWSK 010100Z 05002KT CAVOK 22/18 Q1015 NOSIG


Station Type Date Time Source
LWSK Decoded METAR 2022/07/01 01:00 UTC NOAA

Skopje-Petrovec, Macedonia, The Republic of (LWSK) 41-58N 021-39E 239M
Jun 30, 2022 - 09:00 PM EDT / 2022.07.01 0100 UTC
Wind: from the NE (050 degrees) at 2 MPH (2 KT):0
Visibility: greater than 7 mile(s):0
Temperature: 71 F (22 C)
Dew Point: 64 F (18 C)
Relative Humidity: 78%
Pressure (altimeter): 29.97 in. Hg (1015 hPa)
ob: LWSK 010100Z 05002KT CAVOK 22/18 Q1015 NOSIG
cycle: 1

Station Type Date Time Source
LWSK TAF 2022/07/01 00:00 UTC NOAA

TAF LWSK 302330Z 0100/0124 VRB02KT CAVOK
TEMPO 0112/0119 VRB20KT FEW030CB BKN040

Example: see airport list